< < Back
Terminal Aerodrome Forecast


Current Version              Previous Versions:   1  2  3  4  5  6  7  8  9  

Terminal Aerodrome Forecast

141
FTUS42 KGSP 172300
TAFHKY
TAF
KHKY 172331Z 1800/1824 08003KT P6SM FEW250
     FM181000 04004KT P6SM BKN040 BKN120
     FM182200 03007KT P6SM OVC040=

Latest METAR

186
SAUS70 KWBC 180000
MTRHKY
METAR KHKY 172353Z 07003KT 10SM CLR 13/M03 A3040 RMK AO2 SLP288
T01331033 10167 20133 56000


USA.gov is the U.S. government's official web portal to all federal, state and local government web resources and services.